Seeley, CA

3:16 PM PDT en Agosto 30, 2014 (GMT -0700)
El Centro Naval Air Facility | Change Station
CLOSE
Current Station
Aeropuerto
Location: El Centro,
Altura: -43 ft
Estaciones meteorológicas cercanas
Aviso en curso: Excessive Heat Warning

Alt -43 ft 32.83 °N, 115.66 °W | Updated 20 minutes ago

Clear
Despejado
111 ° F
Sensación térmica 111 ° F
N
5
Viento Variable Viento desde SE

Hoy
Alta -- | Baja -- ° F
--% Posibilidad de precipitaciones
Ayer
Alta -- | Baja -- ° F
Precip. -- pul
6:16 AM 7:09 PM
Creciente, 25% visible
Presión 29.69 pul
Visibilidad 10.0 Millas
Nubes Despejado
Punto de rocío 45 ° F
Humedad 11%
Precipitaciones 0.00 pul
Espesor de la nieve No disponible.
UV 8 de una escala de 12
Polen 7.30 de una escala de 12
Ozono Buena
PM2.5 Buena
Flu Activity No disponible.
METAR KNJK 302156Z 13004KT 10SM CLR 44/07 A2969 RMK SLP054 T04390074 LAST

More Conditions Fewer Conditions

Presión 29.69 pul
Visibilidad 10.0 Millas
Nubes Despejado
Punto de rocío 45 ° F
Humedad 11%
Precipitaciones 0.00 pul
Espesor de la nieve No disponible.
UV 8 de una escala de 12
Polen 7.30 de una escala de 12
Ozono Buena
PM2.5 Buena
Flu Activity No disponible.
METAR KNJK 302156Z 13004KT 10SM CLR 44/07 A2969 RMK SLP054 T04390074 LAST

More Conditions Fewer Conditions

10-Day Weather Forecast

Almanac

Astronomía

Aug. 30, 2014 Salida Puesta
Hora real 6:16 AM PDT 7:09 PM PDT
Crepúsculo civil 5:50 AM PDT 7:35 PM PDT
Crepúsculo náutico 5:20 AM PDT 8:04 PM PDT
Crepúsculo astronómico 4:50 AM PDT 8:35 PM PDT
Luna 10:50 AM PDT 10:05 PM PDT
Horas de luz 13h 44m
Horas de luz
12h 53m
Tomorrow will be 1m 56s shorter.
Creciente, 25% of the Moon is Illuminated
Hoy
Creciente
Sep 2
Cuarto creciente
Sep 8
Luna llena
Sep 15
Cuarto menguante
Sep 24
Nueva

Extremos de hoy

Máximos del estado Bajos del estado

Community

WunderPhotos

Upload Photos

1,748,657 ¡fotos cargadas!

WunderBlogs® & News

Nearby

Calidad del aire

  Calidad del aire Índice AQ Contaminante
Ayer Moderada
OZONE
Ayer Buena
PM10
Real Buena
PM2.5
Real Buena
OZONE
Sábado Moderada
OZONE
Domingo Moderada
OZONE
Lunes Moderada
OZONE
Martes Moderada
OZONE
Miércoles Moderada
OZONE
Jueves Moderada
OZONE

Grosos de nieve

Estación Profundido Altura
Leavitt Meadows 1 in 7200 ft
Echo Peak 0 in 7800 ft
Fallen Leaf 0 in 6300 ft
Rubicon #2 0 in 7500 ft
CSS Lab 2 in 6900 ft

Actividad de terremotos

Ciudad Distance Mag. Tiempo y dato
No hay informes recientes de la actividad sísmica.
Magnitud mínima muestra es 2,5.

Temperaturas de aguas costeras

Lugar Temperatura
Sin partes meteorológicos de las estaciones

Estaciones meteorológicas cercanas